Etusivu
METAR-TAF:

METAR-TAF

Lentoasemat :

Chicago Executive Airport

Wheeling / Prospect Heights, Illinois, Yhdysvallat

Leveyspiiri: 42-07-15N, Pituuspiiri: 087-54-17W, korkeus merenpinnasta: 197 m

Tämänhetkinen sää

Tämä raportti tehtiin 40 minuuttia sitten, kello 15.59 UTC
Tuuli 12 kn etelästä/lounaasta puuskistuen 21 kn:hen
Lämpötila 21°C
Kosteus 73%
Ilmanpaine 1003 hPa
Näkyvyys: 16.1 km
Hajonneita pilviä 2200 ft:n korkeudessa
Hajonneita pilviä 3000 ft:n korkeudessa
Pilvistä 3600 ft:n korkeudessa

METAR: KPWK 191559Z 20012G21KT 10SM BKN022 BKN030 OVC036 21/16 A2961 RMK AO2 T02060156

Aika: 11:39 (16:39 UTC)


TAF: puuttuu

Säähavainnot ja -ennusteet yli 4000 lentoasemalta (METAR- ja TAF-raportit).

Käytössä olevat sääasemat on merkitty karttaan keltaisilla ja punaisilla pisteillä.

Aseta hiiri pisteen päälle nähdäksesi sääaseman nimen.

Klikkaa sitten nähdäksesi säähavainnot ja -ennusteet.

Kartan vaihtaminen: klikkaa mustalla rastilla varustettuja vihreitä pisteitä, niin voit zoomata sisään; viivalla varustettua vihreää pistettä, niin voit zoomata ulos tai vihreitä nuolia, niin pääset viereisille kartoille.


METAR-TAF: